Time;durP1;ratioP1;P1;durP2;ratioP2;P2;SDS_P1;SDS_P2;PMS_P1;PMS_P2;Temp;Humidity;BMP_temperature;BMP_pressure;BME280_temperature;BME280_humidity;BME280_pressure;Samples;Min_cycle;Max_cycle;Signal;HPM_P1;HPM_P2
2021/10/13 00:00:09;;;;;;;2.07;1.30;;;;;;;2.97;nan;100975.84;4964719;28;20149;-83
2021/10/13 00:02:38;;;;;;;1.27;1.17;;;;;;;2.95;nan;100985.38;4973334;28;20045;-83
2021/10/13 00:05:06;;;;;;;2.47;1.00;;;;;;;2.94;nan;100979.25;4980754;28;20126;-83
2021/10/13 00:07:33;;;;;;;1.77;1.20;;;;;;;2.93;nan;100981.84;4961041;28;20046;-82
2021/10/13 00:10:00;;;;;;;2.60;1.00;;;;;;;2.90;nan;100980.06;4981171;28;20034;-83
2021/10/13 00:12:27;;;;;;;1.83;1.00;;;;;;;2.91;nan;100986.19;4960628;28;20038;-84
2021/10/13 00:14:54;;;;;;;2.33;1.00;;;;;;;2.84;nan;100993.03;4964009;28;20037;-83
2021/10/13 00:17:24;;;;;;;1.37;0.90;;;;;;;2.79;nan;100984.25;4943740;28;20042;-84
2021/10/13 00:19:50;;;;;;;1.73;1.30;;;;;;;2.78;nan;100985.13;4953508;28;20042;-84
2021/10/13 00:22:18;;;;;;;3.57;1.63;;;;;;;2.74;nan;100986.78;4959046;28;20049;-83
2021/10/13 00:24:45;;;;;;;1.83;1.23;;;;;;;2.75;nan;100980.69;4967793;28;20039;-83
2021/10/13 00:27:12;;;;;;;2.00;1.43;;;;;;;2.85;nan;100986.06;4971108;28;20435;-83
2021/10/13 00:29:38;;;;;;;3.73;1.43;;;;;;;2.82;nan;100986.91;4960114;28;20042;-83
2021/10/13 00:32:06;;;;;;;0.97;0.90;;;;;;;2.82;nan;100986.91;4969275;28;20065;-84
2021/10/13 00:34:36;;;;;;;2.07;1.30;;;;;;;2.89;nan;100985.28;4996529;28;20046;-84
2021/10/13 00:37:03;;;;;;;1.50;1.10;;;;;;;2.90;nan;100984.41;4995731;28;20040;-83
2021/10/13 00:39:30;;;;;;;3.03;1.13;;;;;;;2.79;nan;100982.53;4976394;28;20218;-83
2021/10/13 00:41:57;;;;;;;1.63;1.20;;;;;;;2.84;nan;100990.41;4976393;28;20093;-83
2021/10/13 00:44:24;;;;;;;1.97;0.90;;;;;;;2.77;nan;100980.72;4962825;28;20042;-83
2021/10/13 00:46:51;;;;;;;1.60;1.33;;;;;;;2.79;nan;100992.97;4961765;28;20523;-83
2021/10/13 00:49:18;;;;;;;2.80;1.20;;;;;;;2.82;nan;100993.00;4961988;28;20103;-84
2021/10/13 00:51:45;;;;;;;3.77;1.40;;;;;;;2.91;nan;100981.81;4952897;28;20042;-84
2021/10/13 00:54:12;;;;;;;2.97;1.20;;;;;;;2.91;nan;100992.28;4953745;28;20038;-83
2021/10/13 00:56:39;;;;;;;3.33;1.33;;;;;;;2.94;nan;100996.66;4963035;28;20046;-83
2021/10/13 00:59:06;;;;;;;1.50;1.03;;;;;;;3.05;nan;100990.75;4961539;28;20047;-84
2021/10/13 01:01:40;;;;;;;4.10;1.30;;;;;;;3.04;nan;100999.44;4980073;28;20126;-83
2021/10/13 01:04:25;;;;;;;;;;;;;;;3.05;nan;100997.72;4975078;28;20042;-83
2021/10/13 01:07:05;;;;;;;2.33;1.25;;;;;;;3.07;nan;100990.78;4972522;28;20324;-83
2021/10/13 01:09:37;;;;;;;1.77;1.37;;;;;;;3.11;nan;100987.34;4977464;28;20048;-83
2021/10/13 01:12:55;;;;;;;1.93;1.10;;;;;;;3.15;nan;100994.38;4943342;28;20080;-83
2021/10/13 01:15:31;;;;;;;2.80;1.33;;;;;;;3.14;nan;101003.06;4952323;28;20047;-84
2021/10/13 01:18:07;;;;;;;1.50;1.10;;;;;;;3.19;nan;100993.56;4957973;28;20031;-82
2021/10/13 01:20:53;;;;;;;2.10;1.10;;;;;;;3.34;nan;100998.13;4959773;28;20045;-82
2021/10/13 01:23:57;;;;;;;2.73;1.23;;;;;;;3.31;nan;100992.88;4975016;28;20040;-82
2021/10/13 01:26:31;;;;;;;2.20;1.10;;;;;;;3.31;nan;100998.97;4959281;28;20050;-83
2021/10/13 01:29:05;;;;;;;2.67;1.40;;;;;;;3.37;nan;101006.91;4956759;28;20046;-83
2021/10/13 01:31:49;;;;;;;3.03;1.30;;;;;;;3.33;nan;101004.22;4971880;28;20045;-83
2021/10/13 01:34:26;;;;;;;1.67;1.30;;;;;;;3.35;nan;101005.97;4960080;28;20030;-83
2021/10/13 01:37:06;;;;;;;1.70;1.27;;;;;;;3.28;nan;101006.78;4947307;28;20053;-83
2021/10/13 01:39:35;;;;;;;1.63;1.10;;;;;;;3.28;nan;101013.69;4987061;28;20040;-82
2021/10/13 01:42:06;;;;;;;1.43;1.10;;;;;;;3.23;nan;101008.44;4975362;28;20048;-83
2021/10/13 01:44:37;;;;;;;2.80;2.07;;;;;;;3.22;nan;101018.84;4981947;28;20044;-84
2021/10/13 01:47:05;;;;;;;2.33;1.13;;;;;;;3.22;nan;101016.25;4951531;28;20041;-84
2021/10/13 01:49:33;;;;;;;2.43;1.20;;;;;;;3.18;nan;101017.91;4958626;28;20525;-83
2021/10/13 01:52:02;;;;;;;2.80;1.13;;;;;;;3.16;nan;101023.97;4942659;28;20053;-84
2021/10/13 01:54:29;;;;;;;3.60;1.30;;;;;;;3.19;nan;101029.22;4944472;28;20042;-81
2021/10/13 01:56:59;;;;;;;2.50;0.90;;;;;;;3.06;nan;101029.06;4970264;28;20044;-84
2021/10/13 01:59:26;;;;;;;2.00;1.10;;;;;;;3.02;nan;101027.22;4953102;28;20061;-82
2021/10/13 02:01:54;;;;;;;2.63;1.40;;;;;;;3.01;nan;101030.69;4974416;28;20507;-82
2021/10/13 02:04:23;;;;;;;2.50;1.10;;;;;;;3.02;nan;101029.84;4973279;28;20048;-83
2021/10/13 02:06:50;;;;;;;1.30;1.07;;;;;;;2.94;nan;101038.41;4972774;28;20040;-83
2021/10/13 02:09:22;;;;;;;2.50;1.10;;;;;;;2.89;nan;101029.63;4957374;28;20414;-82
2021/10/13 02:11:50;;;;;;;4.53;1.43;;;;;;;2.90;nan;101036.63;4937212;28;20042;-84
2021/10/13 02:14:19;;;;;;;1.00;0.90;;;;;;;2.82;nan;101034.75;4980894;28;20042;-84
2021/10/13 02:16:48;;;;;;;2.30;1.47;;;;;;;2.78;nan;101035.56;4973629;28;20491;-82
2021/10/13 02:19:19;;;;;;;1.40;1.13;;;;;;;2.76;nan;101039.84;4958383;28;20530;-82
2021/10/13 02:21:49;;;;;;;2.60;1.33;;;;;;;2.64;nan;101036.16;4975526;28;20034;-82
2021/10/13 02:24:22;;;;;;;1.97;1.30;;;;;;;2.66;nan;101047.50;4970584;28;20035;-83
2021/10/13 02:27:04;;;;;;;2.13;1.50;;;;;;;2.56;nan;101042.97;4959233;28;20044;-84
2021/10/13 02:29:31;;;;;;;2.03;1.27;;;;;;;2.52;nan;101047.25;4958234;28;20034;-84
2021/10/13 02:31:58;;;;;;;1.47;1.10;;;;;;;2.50;nan;101051.56;4954564;28;20053;-83
2021/10/13 02:34:25;;;;;;;1.20;1.00;;;;;;;2.43;nan;101055.78;4975460;28;20040;-83
2021/10/13 02:36:52;;;;;;;3.00;1.20;;;;;;;2.44;nan;101051.47;4973986;28;20039;-82
2021/10/13 02:39:19;;;;;;;2.40;1.57;;;;;;;2.48;nan;101061.97;4973711;28;20743;-82
2021/10/13 02:41:46;;;;;;;1.63;0.90;;;;;;;2.41;nan;101059.22;4957621;28;20046;-83
2021/10/13 02:44:13;;;;;;;2.57;1.17;;;;;;;2.40;nan;101066.16;4958307;28;20041;-83
2021/10/13 02:46:55;;;;;;;1.77;1.10;;;;;;;2.42;nan;101059.22;4971936;28;20031;-83
2021/10/13 02:49:39;;;;;;;4.80;1.50;;;;;;;2.40;nan;101060.06;4957793;28;20042;-83
2021/10/13 02:52:15;;;;;;;2.83;1.00;;;;;;;2.37;nan;101071.31;4973990;28;20046;-83
2021/10/13 02:54:52;;;;;;;1.87;1.17;;;;;;;2.31;nan;101059.88;4975103;28;20046;-82
2021/10/13 02:57:20;;;;;;;1.00;0.90;;;;;;;2.28;nan;101070.28;4976326;28;20045;-82
2021/10/13 02:59:50;;;;;;;2.67;0.90;;;;;;;2.29;nan;101072.91;4965412;28;20039;-83
2021/10/13 03:02:24;;;;;;;2.20;1.00;;;;;;;2.20;nan;101068.38;4957641;28;20971;-81
2021/10/13 03:04:54;;;;;;;2.00;1.10;;;;;;;2.20;nan;101071.00;4948611;28;20031;-83
2021/10/13 03:07:23;;;;;;;2.80;1.20;;;;;;;2.22;nan;101076.22;4939091;28;20039;-82
2021/10/13 03:09:54;;;;;;;1.97;1.23;;;;;;;2.29;nan;101075.50;4971660;28;20037;-83
2021/10/13 03:12:24;;;;;;;2.03;1.20;;;;;;;2.35;nan;101079.94;4973512;28;20046;-83
2021/10/13 03:14:55;;;;;;;2.00;1.07;;;;;;;2.42;nan;101085.31;4957122;28;20503;-82
2021/10/13 03:17:23;;;;;;;3.50;1.87;;;;;;;2.47;nan;101080.19;4977043;28;20038;-83
2021/10/13 03:19:50;;;;;;;1.07;0.97;;;;;;;2.51;nan;101075.06;4977754;28;20106;-82
2021/10/13 03:22:18;;;;;;;1.83;1.20;;;;;;;2.63;nan;101090.06;4981363;28;20046;-83
2021/10/13 03:24:45;;;;;;;1.87;1.37;;;;;;;2.71;nan;101083.25;4963306;28;20045;-83
2021/10/13 03:27:12;;;;;;;2.40;1.10;;;;;;;2.77;nan;101088.56;4961993;28;20530;-82
2021/10/13 03:29:43;;;;;;;3.43;1.20;;;;;;;2.86;nan;101089.59;4978169;28;20053;-82
2021/10/13 03:32:09;;;;;;;2.90;1.20;;;;;;;2.92;nan;101090.56;4958431;28;20038;-82
2021/10/13 03:34:39;;;;;;;1.10;1.00;;;;;;;2.97;nan;101090.69;4965819;28;20035;-82
2021/10/13 03:37:06;;;;;;;2.90;1.10;;;;;;;3.00;nan;101094.19;4960182;28;20543;-83
2021/10/13 03:39:33;;;;;;;1.80;1.17;;;;;;;3.05;nan;101095.19;4978251;28;20676;-82
2021/10/13 03:42:01;;;;;;;1.73;1.10;;;;;;;3.09;nan;101091.75;4977509;28;20052;-82
2021/10/13 03:44:28;;;;;;;2.37;1.47;;;;;;;3.15;nan;101085.75;4962908;28;20068;-81
2021/10/13 03:46:55;;;;;;;3.00;1.10;;;;;;;3.20;nan;101094.56;4989853;28;20040;-82
2021/10/13 03:49:22;;;;;;;1.37;1.10;;;;;;;3.24;nan;101096.34;4979233;28;20064;-82
2021/10/13 03:51:49;;;;;;;2.17;1.40;;;;;;;3.28;nan;101107.72;4959742;28;20665;-82
2021/10/13 03:54:16;;;;;;;1.20;1.10;;;;;;;3.31;nan;101103.44;4959593;28;20039;-84
2021/10/13 03:56:43;;;;;;;2.03;1.03;;;;;;;3.35;nan;101100.00;4969546;28;20035;-85
2021/10/13 03:59:10;;;;;;;3.07;1.30;;;;;;;3.41;nan;101104.44;4977861;28;20039;-83
2021/10/13 04:01:38;;;;;;;2.70;1.40;;;;;;;3.44;nan;101108.84;4994980;28;20077;-82
2021/10/13 04:04:05;;;;;;;2.70;1.50;;;;;;;3.45;nan;101102.75;4976466;28;20060;-83
2021/10/13 04:06:33;;;;;;;2.13;1.43;;;;;;;3.50;nan;101111.56;4963117;28;20570;-82
2021/10/13 04:09:00;;;;;;;1.50;1.00;;;;;;;3.52;nan;101108.09;4975892;28;20045;-84
2021/10/13 04:11:28;;;;;;;3.00;1.50;;;;;;;3.55;nan;101115.13;4976993;28;20035;-83
2021/10/13 04:13:55;;;;;;;3.93;1.53;;;;;;;3.57;nan;101116.91;4991241;28;20053;-82
2021/10/13 04:16:22;;;;;;;1.97;1.20;;;;;;;3.58;nan;101116.03;4943830;28;20053;-84
2021/10/13 04:18:49;;;;;;;1.47;1.10;;;;;;;3.62;nan;101119.59;4927779;28;20041;-84
2021/10/13 04:21:16;;;;;;;2.03;1.53;;;;;;;3.64;nan;101117.88;4962551;28;20058;-84
2021/10/13 04:23:43;;;;;;;2.23;1.37;;;;;;;3.68;nan;101123.16;4957469;28;20061;-84
2021/10/13 04:26:10;;;;;;;2.57;1.30;;;;;;;3.72;nan;101120.59;4950551;28;20688;-83
2021/10/13 04:28:36;;;;;;;2.73;1.50;;;;;;;3.71;nan;101118.84;4971463;28;20026;-84
2021/10/13 04:31:03;;;;;;;3.07;1.20;;;;;;;3.74;nan;101118.88;4977351;28;20039;-84
2021/10/13 04:33:30;;;;;;;3.53;1.47;;;;;;;3.76;nan;101120.66;4959128;28;20100;-83
2021/10/13 04:35:57;;;;;;;3.80;1.60;;;;;;;3.79;nan;101123.34;4978399;28;20124;-83
2021/10/13 04:38:24;;;;;;;3.30;1.33;;;;;;;3.83;nan;101126.84;5060122;23;20031;-84
2021/10/13 04:40:51;;;;;;;3.47;1.53;;;;;;;3.82;nan;101125.97;5000647;28;20065;-84
2021/10/13 04:43:18;;;;;;;2.97;1.33;;;;;;;3.84;nan;101116.41;5017275;28;20033;-82
2021/10/13 04:45:45;;;;;;;2.23;1.33;;;;;;;3.85;nan;101123.41;5002420;28;20037;-82
2021/10/13 04:48:12;;;;;;;2.53;1.43;;;;;;;3.85;nan;101123.41;5001870;28;20645;-82
2021/10/13 04:50:40;;;;;;;2.30;1.43;;;;;;;3.86;nan;101130.38;4987038;28;20052;-85
2021/10/13 04:53:07;;;;;;;2.50;1.97;;;;;;;3.85;nan;101132.97;4979712;28;20049;-84
2021/10/13 04:55:34;;;;;;;3.73;2.03;;;;;;;3.89;nan;101120.00;5002298;28;20037;-86
2021/10/13 04:58:01;;;;;;;3.10;1.43;;;;;;;3.92;nan;101117.41;4998062;28;20042;-85
2021/10/13 05:00:28;;;;;;;2.93;1.60;;;;;;;3.90;nan;101118.25;5004589;28;20041;-85
2021/10/13 05:02:55;;;;;;;2.50;1.40;;;;;;;3.93;nan;101113.06;4981327;28;20052;-83
2021/10/13 05:05:22;;;;;;;3.10;1.63;;;;;;;3.94;nan;101115.69;4997476;28;20045;-82
2021/10/13 05:07:49;;;;;;;2.53;1.40;;;;;;;3.93;nan;101110.44;4994494;28;20060;-83
2021/10/13 05:10:16;;;;;;;2.80;1.97;;;;;;;3.97;nan;101114.88;5008200;28;20030;-84
2021/10/13 05:12:43;;;;;;;3.77;1.77;;;;;;;3.96;nan;101105.28;5002906;28;20048;-84
2021/10/13 05:15:10;;;;;;;3.33;2.03;;;;;;;3.97;nan;101119.22;4995299;28;20436;-84
2021/10/13 05:17:37;;;;;;;3.27;1.63;;;;;;;3.98;nan;101116.63;4997373;28;20045;-84
2021/10/13 05:20:04;;;;;;;2.67;1.43;;;;;;;4.01;nan;101123.63;5008320;28;20317;-83
2021/10/13 05:22:31;;;;;;;2.47;1.50;;;;;;;4.04;nan;101123.69;5012975;28;20040;-83
2021/10/13 05:24:58;;;;;;;3.77;1.90;;;;;;;4.03;nan;101122.78;5014932;28;20153;-83
2021/10/13 05:27:25;;;;;;;3.97;1.70;;;;;;;4.02;nan;101133.22;4992718;28;20029;-83
2021/10/13 05:29:52;;;;;;;53.23;36.60;;;;;;;4.01;nan;101134.06;4992542;28;20044;-84
2021/10/13 05:32:19;;;;;;;20.50;14.87;;;;;;;3.97;nan;101140.13;5014831;28;20040;-84
2021/10/13 05:34:46;;;;;;;6.83;4.87;;;;;;;3.95;nan;101143.59;4976883;28;20033;-84
2021/10/13 05:37:12;;;;;;;10.40;5.57;;;;;;;3.89;nan;101146.13;4998589;28;20038;-84
2021/10/13 05:39:40;;;;;;;5.53;2.43;;;;;;;3.85;nan;101141.69;4995011;28;20030;-82
2021/10/13 05:42:06;;;;;;;2.93;1.93;;;;;;;3.78;nan;101152.03;5007080;28;20045;-81
2021/10/13 05:44:33;;;;;;;22.63;12.50;;;;;;;3.78;nan;101152.91;4994964;28;20048;-82
2021/10/13 05:47:00;;;;;;;63.10;34.13;;;;;;;3.76;nan;101157.25;4992456;28;20042;-82
2021/10/13 05:49:27;;;;;;;21.77;12.87;;;;;;;3.75;nan;101167.69;4987428;28;20041;-82
2021/10/13 05:51:54;;;;;;;6.40;4.10;;;;;;;3.78;nan;101163.38;5009375;28;20487;-84
2021/10/13 05:54:21;;;;;;;2.90;1.93;;;;;;;3.82;nan;101173.03;5015707;28;20048;-83
2021/10/13 05:56:50;;;;;;;2.87;1.83;;;;;;;3.87;nan;101175.72;4995083;28;20042;-81
2021/10/13 05:59:18;;;;;;;2.30;1.60;;;;;;;3.88;nan;101180.09;4996025;28;20084;-82
2021/10/13 06:01:45;;;;;;;2.10;1.47;;;;;;;3.89;nan;101182.72;4977529;28;20052;-82
2021/10/13 06:04:12;;;;;;;2.20;1.80;;;;;;;3.88;nan;101190.53;4978719;28;20038;-82
2021/10/13 06:06:39;;;;;;;3.47;1.53;;;;;;;3.92;nan;101197.56;4991045;28;20034;-82
2021/10/13 06:09:06;;;;;;;2.87;1.60;;;;;;;3.99;nan;101202.03;5005002;28;20041;-83
2021/10/13 06:11:33;;;;;;;3.80;2.00;;;;;;;4.07;nan;101196.91;4979982;28;20044;-84
2021/10/13 06:14:00;;;;;;;7.17;2.77;;;;;;;4.18;nan;101201.44;5013320;28;20030;-83
2021/10/13 06:16:27;;;;;;;3.43;2.20;;;;;;;4.21;nan;101201.50;4982252;28;20079;-83
2021/10/13 06:18:54;;;;;;;3.70;2.43;;;;;;;4.20;nan;101215.44;4993586;28;20044;-83
2021/10/13 06:21:22;;;;;;;3.30;1.93;;;;;;;4.24;nan;101211.13;5000006;28;20596;-81
2021/10/13 06:23:49;;;;;;;2.30;1.67;;;;;;;4.28;nan;101220.75;4979628;28;20037;-83
2021/10/13 06:26:16;;;;;;;3.23;1.73;;;;;;;4.33;nan;101226.06;4983626;28;20121;-83
2021/10/13 06:28:43;;;;;;;2.60;1.80;;;;;;;4.36;nan;101223.47;5001261;28;20680;-82
2021/10/13 06:31:10;;;;;;;2.87;1.60;;;;;;;4.36;nan;101218.22;4999421;28;20039;-84
2021/10/13 06:33:38;;;;;;;2.40;1.63;;;;;;;4.44;nan;101225.31;4995154;28;20505;-82
2021/10/13 06:36:07;;;;;;;2.63;1.50;;;;;;;4.46;nan;101228.88;5002958;28;20048;-84
2021/10/13 06:38:35;;;;;;;3.73;1.60;;;;;;;4.52;nan;101230.66;5009989;28;20052;-84
2021/10/13 06:41:06;;;;;;;3.03;1.63;;;;;;;4.58;nan;101243.84;4997282;28;20045;-83
2021/10/13 06:43:33;;;;;;;3.27;1.70;;;;;;;4.60;nan;101244.72;4994190;28;20041;-81
2021/10/13 06:46:00;;;;;;;2.27;1.50;;;;;;;4.60;nan;101246.47;4991646;28;20041;-82
2021/10/13 06:48:27;;;;;;;2.00;1.50;;;;;;;4.61;nan;101243.88;4987645;28;20485;-82
2021/10/13 06:50:54;;;;;;;2.43;1.60;;;;;;;4.63;nan;101246.53;4987375;28;20038;-84
2021/10/13 06:53:21;;;;;;;3.17;1.73;;;;;;;4.63;nan;101246.53;5012170;28;20544;-83
2021/10/13 06:55:48;;;;;;;3.37;1.57;;;;;;;4.61;nan;101248.22;5009433;28;20067;-82
2021/10/13 06:58:15;;;;;;;2.03;1.50;;;;;;;4.62;nan;101257.84;5013422;28;20646;-82
2021/10/13 07:00:42;;;;;;;3.77;1.90;;;;;;;4.65;nan;101247.44;4998940;28;20060;-81
2021/10/13 07:03:09;;;;;;;4.07;2.10;;;;;;;4.63;nan;101252.66;5008316;28;20047;-83
2021/10/13 07:05:36;;;;;;;2.27;1.70;;;;;;;4.69;nan;101257.06;5015789;28;20048;-83
2021/10/13 07:08:04;;;;;;;3.43;2.73;;;;;;;4.80;nan;101255.47;5019355;28;20041;-83
2021/10/13 07:10:31;;;;;;;3.90;3.03;;;;;;;4.75;nan;101247.56;5005634;28;20053;-82
2021/10/13 07:12:58;;;;;;;3.80;1.93;;;;;;;4.80;nan;101255.47;5015245;28;20443;-82
2021/10/13 07:15:25;;;;;;;2.57;1.63;;;;;;;4.90;nan;101252.09;5025673;28;20089;-83
2021/10/13 07:17:55;;;;;;;3.07;2.23;;;;;;;4.97;nan;101253.94;4989228;28;20042;-83
2021/10/13 07:20:24;;;;;;;2.83;1.77;;;;;;;4.99;nan;101259.19;5004141;28;20037;-83
2021/10/13 07:22:51;;;;;;;4.37;1.70;;;;;;;5.06;nan;101254.03;5003319;28;20140;-82
2021/10/13 07:25:22;;;;;;;3.73;2.13;;;;;;;5.08;nan;101262.78;5019049;28;20108;-82
2021/10/13 07:40:35;;;;;;;3.83;2.13;;;;;;;6.18;100.00;101262.97;5149046;27;20395;-81
2021/10/13 07:43:02;;;;;;;3.20;2.03;;;;;;;6.13;100.00;101262.06;5134437;27;20096;-83
2021/10/13 07:45:29;;;;;;;5.17;2.00;;;;;;;6.12;100.00;101263.78;5133029;27;20096;-83
2021/10/13 07:47:55;;;;;;;3.00;2.10;;;;;;;6.19;100.00;101269.97;5131022;27;20099;-82
2021/10/13 07:50:22;;;;;;;2.00;1.77;;;;;;;6.21;100.00;101270.84;5130737;27;20043;-82
2021/10/13 07:52:49;;;;;;;3.10;2.67;;;;;;;6.32;100.00;101268.31;5112861;27;20036;-81
2021/10/13 07:55:16;;;;;;;3.57;2.37;;;;;;;6.39;100.00;101268.38;5130732;27;20045;-82
2021/10/13 07:57:43;;;;;;;4.60;2.13;;;;;;;6.42;100.00;101273.63;5112706;28;20043;-82
2021/10/13 08:00:10;;;;;;;4.23;2.13;;;;;;;6.59;100.00;101271.09;5127297;27;20043;-81
2021/10/13 08:02:45;;;;;;;3.33;1.80;;;;;;;6.61;100.00;101274.63;5149800;27;20081;-82
2021/10/13 08:05:13;;;;;;;2.20;1.53;;;;;;;6.67;100.00;101274.66;5110307;28;20126;-81
2021/10/13 08:07:40;;;;;;;4.17;1.80;;;;;;;6.84;100.00;101276.50;5130600;27;20039;-82
2021/10/13 08:10:07;;;;;;;2.13;1.70;;;;;;;6.89;100.00;101280.00;5139562;27;20412;-82
2021/10/13 08:12:34;;;;;;;2.43;1.60;;;;;;;6.97;100.00;101283.53;5153189;27;20042;-81
2021/10/13 08:15:01;;;;;;;2.50;1.90;;;;;;;7.00;100.00;101281.81;5133539;27;20050;-82
2021/10/13 08:17:28;;;;;;;3.00;2.13;;;;;;;7.02;100.00;101279.19;5136494;27;20047;-82
2021/10/13 08:19:54;;;;;;;4.20;2.67;;;;;;;7.04;100.00;101295.84;5124413;27;20038;-81
2021/10/13 08:22:22;;;;;;;3.23;1.73;;;;;;;7.17;100.00;101289.75;5149885;27;20723;-82
2021/10/13 08:24:49;;;;;;;2.73;1.70;;;;;;;7.33;100.00;101294.19;5129456;27;20047;-81
2021/10/13 08:27:15;;;;;;;3.43;1.60;;;;;;;7.33;100.00;101296.81;5140674;27;20050;-82
2021/10/13 08:29:42;;;;;;;4.43;2.03;;;;;;;7.37;100.00;101300.31;5125528;27;20039;-82
2021/10/13 08:32:09;;;;;;;2.07;1.23;;;;;;;7.54;100.00;101303.88;5163486;27;20684;-81
2021/10/13 08:34:36;;;;;;;4.20;1.50;;;;;;;7.61;100.00;101296.88;5129806;27;20042;-81
2021/10/13 08:37:06;;;;;;;2.43;1.80;;;;;;;7.66;100.00;101307.44;5127185;27;20046;-82
2021/10/13 08:39:34;;;;;;;3.73;1.60;;;;;;;7.79;100.00;101303.91;5128847;27;20490;-82
2021/10/13 08:42:01;;;;;;;2.33;1.20;;;;;;;7.79;100.00;101309.19;5116335;27;20042;-82
2021/10/13 08:44:28;;;;;;;2.80;1.37;;;;;;;8.04;100.00;101307.44;5118164;27;20720;-82
2021/10/13 08:46:54;;;;;;;1.87;1.00;;;;;;;8.14;99.56;101302.19;5118841;27;20037;-81
2021/10/13 08:49:21;;;;;;;4.90;2.10;;;;;;;8.35;100.00;101306.59;5132638;27;20039;-81
2021/10/13 08:51:49;;;;;;;2.40;1.40;;;;;;;8.53;97.06;101304.81;5098283;27;20047;-82
2021/10/13 08:54:20;;;;;;;3.50;1.58;;;;;;;8.76;100.00;101302.13;5116096;27;20067;-82
2021/10/13 08:56:47;;;;;;;1.88;1.20;;;;;;;8.78;99.50;101306.50;5118807;27;20047;-82
2021/10/13 08:59:51;;;;;;;9.70;3.67;;;;;;;9.05;97.79;101305.53;5127873;27;20035;-83
2021/10/13 09:02:36;;;;;;;5.97;2.50;;;;;;;9.32;93.39;101307.16;5001212;28;20053;-81
2021/10/13 09:05:12;;;;;;;1.80;1.20;;;;;;;9.49;92.83;101304.44;5109361;27;20051;-82
2021/10/13 09:07:46;;;;;;;2.40;1.30;;;;;;;9.64;93.81;101303.47;5132071;27;21851;-83
2021/10/13 09:10:13;;;;;;;2.55;1.48;;;;;;;9.79;93.40;101298.97;5098824;27;20031;-82
2021/10/13 09:12:40;;;;;;;1.67;1.13;;;;;;;9.94;94.32;101305.91;5114299;27;20043;-82
2021/10/13 09:15:12;;;;;;;2.78;1.15;;;;;;;10.10;94.22;101302.28;5115459;27;20062;-83
2021/10/13 09:17:53;;;;;;;1.75;1.30;;;;;;;10.48;87.38;101301.06;5110518;27;20035;-82
2021/10/13 09:20:22;;;;;;;3.10;1.20;;;;;;;10.66;85.08;101306.16;5113078;27;20036;-82
2021/10/13 09:23:17;;;;;;;1.65;0.90;;;;;;;10.77;81.57;101308.72;5118110;27;20038;-81
2021/10/13 09:26:01;;;;;;;2.55;1.45;;;;;;;11.05;80.13;101316.31;5135033;27;20446;-82
2021/10/13 09:28:27;;;;;;;1.40;0.80;;;;;;;11.18;79.04;101308.22;5103081;27;20036;-81
2021/10/13 09:30:54;;;;;;;2.08;1.35;;;;;;;11.19;78.41;101309.97;5095675;28;20047;-81
2021/10/13 09:33:21;;;;;;;2.88;1.20;;;;;;;11.49;79.59;101310.44;5125633;27;20043;-81
2021/10/13 09:35:52;;;;;;;1.25;0.80;;;;;;;11.65;79.23;101309.34;5110246;27;20039;-82
2021/10/13 09:38:21;;;;;;;5.72;1.23;;;;;;;11.77;76.54;101314.47;5130865;27;20048;-82
2021/10/13 09:40:50;;;;;;;2.20;1.00;;;;;;;11.83;74.89;101311.75;5115894;27;20049;-82
2021/10/13 09:43:36;;;;;;;2.58;1.13;;;;;;;12.01;75.31;101305.28;5131421;27;20035;-82
2021/10/13 09:46:13;;;;;;;2.70;1.30;;;;;;;11.69;71.74;101323.41;5106021;27;20431;-82
2021/10/13 09:48:59;;;;;;;0.80;0.80;;;;;;;11.41;74.26;101333.50;5108980;28;20070;-83
2021/10/13 09:51:27;;;;;;;1.33;0.73;;;;;;;11.23;74.54;101331.97;5110624;28;20050;-82
2021/10/13 09:54:06;;;;;;;1.17;0.80;;;;;;;11.11;77.38;101337.41;5113387;27;20091;-83
2021/10/13 09:56:37;;;;;;;1.63;1.02;;;;;;;11.29;76.17;101331.88;5111435;27;20104;-81
2021/10/13 09:59:12;;;;;;;0.60;0.60;;;;;;;11.24;71.45;101334.56;5111213;27;20046;-82
2021/10/13 10:01:45;;;;;;;0.85;0.80;;;;;;;11.11;76.09;101343.56;5098144;27;20055;-81
2021/10/13 10:04:17;;;;;;;2.47;0.80;;;;;;;10.97;76.00;101340.19;5129056;27;20042;-82
2021/10/13 10:06:48;;;;;;;1.20;0.90;;;;;;;11.07;79.91;101346.25;5102903;28;20047;-81
2021/10/13 10:09:17;;;;;;;1.95;1.15;;;;;;;11.47;77.82;101336.94;5109771;27;20107;-82
2021/10/13 10:11:46;;;;;;;0.77;0.77;;;;;;;11.69;73.51;101336.66;5133056;27;20062;-81
2021/10/13 10:14:36;;;;;;;1.40;0.90;;;;;;;12.04;70.96;101330.84;5105443;27;20065;-82
2021/10/13 10:17:05;;;;;;;2.65;1.10;;;;;;;12.42;73.07;101337.28;5114159;27;20050;-81
2021/10/13 10:19:43;;;;;;;2.17;0.88;;;;;;;12.65;69.52;101328.03;5111176;27;20089;-81
2021/10/13 10:22:13;;;;;;;1.92;0.95;;;;;;;12.73;68.82;101334.97;5111971;27;20044;-81
2021/10/13 10:24:46;;;;;;;1.90;0.82;;;;;;;12.69;66.18;101326.19;5107536;27;20038;-83
2021/10/13 10:27:19;;;;;;;1.77;1.02;;;;;;;12.81;64.47;101328.63;5110080;27;20042;-82
2021/10/13 10:29:46;;;;;;;2.25;1.15;;;;;;;12.70;65.00;101332.38;5110711;27;20120;-81
2021/10/13 10:32:15;;;;;;;3.38;0.90;;;;;;;12.59;67.04;101330.78;5112874;27;20043;-82
2021/10/13 10:35:04;;;;;;;1.45;1.00;;;;;;;12.41;67.57;101331.09;5112474;27;20130;-82
2021/10/13 10:37:43;;;;;;;1.58;0.88;;;;;;;12.49;67.04;101330.97;5126455;27;20048;-82
2021/10/13 10:40:19;;;;;;;2.30;0.90;;;;;;;12.54;67.21;101331.78;5107911;27;20435;-82
2021/10/13 10:42:53;;;;;;;0.75;0.60;;;;;;;12.57;66.92;101334.38;5130671;27;20031;-82
2021/10/13 10:45:33;;;;;;;0.95;0.70;;;;;;;12.83;66.70;101331.22;5106036;27;20501;-82
2021/10/13 10:48:00;;;;;;;0.90;0.88;;;;;;;12.62;63.00;101328.09;5098227;27;20546;-83
2021/10/13 10:50:29;;;;;;;2.55;0.77;;;;;;;12.62;63.54;101329.88;5113294;27;20562;-82
2021/10/13 10:53:21;;;;;;;1.55;1.00;;;;;;;12.58;63.92;101333.47;5116427;27;20043;-83
2021/10/13 10:55:54;;;;;;;3.55;1.33;;;;;;;12.80;62.71;101340.13;5121826;27;20043;-82
2021/10/13 10:58:37;;;;;;;1.20;0.75;;;;;;;12.92;64.11;101323.97;5112802;27;20047;-83
2021/10/13 11:01:20;;;;;;;2.33;1.02;;;;;;;13.26;62.79;101339.25;5106014;27;20123;-82
2021/10/13 11:03:48;;;;;;;1.23;0.90;;;;;;;13.04;63.50;101343.22;5095809;27;20062;-82
2021/10/13 11:06:23;;;;;;;2.55;1.00;;;;;;;13.16;60.86;101332.34;5098088;27;20062;-82
2021/10/13 11:08:56;;;;;;;0.90;0.80;;;;;;;13.26;63.13;101344.56;5092767;27;20413;-83
2021/10/13 11:11:27;;;;;;;2.03;0.82;;;;;;;13.24;55.96;101338.41;5131051;27;20080;-84
2021/10/13 11:14:21;;;;;;;2.33;0.85;;;;;;;13.14;59.47;101339.47;5116475;27;20091;-82
2021/10/13 11:16:54;;;;;;;1.10;0.70;;;;;;;12.96;56.72;101346.91;5107699;27;20101;-83
2021/10/13 11:19:28;;;;;;;1.92;1.13;;;;;;;13.25;60.37;101353.41;5141769;27;20042;-84
2021/10/13 11:22:04;;;;;;;1.45;1.00;;;;;;;13.38;59.20;101349.63;5106379;27;20053;-82
2021/10/13 11:24:35;;;;;;;1.98;1.10;;;;;;;13.41;58.48;101352.19;5111339;27;20039;-83
2021/10/13 11:27:03;;;;;;;2.63;1.05;;;;;;;13.45;57.77;101351.25;5139003;27;20064;-83
2021/10/13 11:29:32;;;;;;;1.38;0.90;;;;;;;13.58;55.32;101350.97;5102617;28;20051;-81
2021/10/13 11:32:08;;;;;;;0.98;0.70;;;;;;;13.53;58.14;101353.72;5113013;28;20038;-83
2021/10/13 11:34:35;;;;;;;1.95;0.90;;;;;;;13.61;59.54;101350.88;5110268;28;20402;-84
2021/10/13 11:37:03;;;;;;;1.13;0.90;;;;;;;13.76;59.27;101353.22;5090472;28;20047;-83
2021/10/13 11:39:32;;;;;;;2.60;0.90;;;;;;;13.89;58.93;101352.03;5112520;27;20030;-83
2021/10/13 11:41:59;;;;;;;1.80;1.13;;;;;;;14.00;55.97;101338.50;5132688;27;20084;-82
2021/10/13 11:44:27;;;;;;;1.13;0.70;;;;;;;13.84;53.77;101345.94;5126578;27;20041;-83
2021/10/13 11:47:05;;;;;;;2.05;1.40;;;;;;;14.06;57.41;101338.34;5111759;28;20049;-82
2021/10/13 11:49:33;;;;;;;1.73;1.00;;;;;;;14.02;57.19;101342.84;5126243;28;20054;-83
2021/10/13 11:52:08;;;;;;;1.30;1.05;;;;;;;13.95;55.19;101343.03;5094745;28;20043;-83
2021/10/13 11:54:35;;;;;;;0.90;0.70;;;;;;;13.67;56.13;101340.13;5106033;28;20061;-82
2021/10/13 11:57:02;;;;;;;0.75;0.60;;;;;;;13.63;52.80;101339.34;5108532;28;20063;-83
2021/10/13 11:59:28;;;;;;;0.90;0.80;;;;;;;13.58;54.36;101332.38;5096240;28;20035;-82
2021/10/13 12:01:55;;;;;;;1.65;0.98;;;;;;;13.47;56.28;101341.47;5088122;28;20031;-83
2021/10/13 12:04:24;;;;;;;1.45;0.90;;;;;;;13.66;57.72;101335.75;5090361;28;20039;-82
2021/10/13 12:06:51;;;;;;;1.33;1.02;;;;;;;13.88;55.56;101334.34;5114663;28;20039;-82